Terminal Aerodrome Forecast
Issued by NWS Grand Forks, ND

Home | Current Version | Previous Version | Graphics & Text | Print | Product List | Glossary On
Versions: 1 2 3 4 5 6 7 8 9 10 11 12 13 14 15 16 17 18 19 20
000
FTUS43 KFGF 240530
TAFFAR
TAF
KFAR 240530Z 2406/2506 01003KT 2SM BR OVC009
     FM240900 35004KT 4SM BR OVC005
      TEMPO 2409/2413 1/2SM FG OVC003
     FM241500 36012KT 2SM BR BKN009
     FM241700 36012G19KT P6SM SCT020
     FM250400 03006KT P6SM FEW200=

USA.gov is the U.S. government's official web portal to all federal, state and local government web resources and services.